Terminal Aerodrome Forecast
Issued by NWS Portland, OR

Home | Current Version | Previous Version | Text Only | Print | Product List | Glossary On
Versions: 1 2 3 4 5 6 7 8 9 10 11 12 13 14 15 16 17 18 19 20 21 22 23 24 25 26 27 28 29 30 31 32 33 34
000
FTUS46 KPQR 040614 AAA
TAFEUG
TAF AMD
KEUG 040614Z 0406/0506 30005KT P6SM FEW060
     FM041200 VRB03KT P6SM SCT002
     FM041800 36009KT P6SM VCSH SCT006=

USA.gov is the U.S. government's official web portal to all federal, state and local government web resources and services.